Time;durP1;ratioP1;P1;durP2;ratioP2;P2;SDS_P1;SDS_P2;PMS_P1;PMS_P2;Temp;Humidity;BMP_temperature;BMP_pressure;BME280_temperature;BME280_humidity;BME280_pressure;Samples;Min_cycle;Max_cycle;Signal;HPM_P1;HPM_P2
2022/08/03 06:00:25;;;;;;;6.07;3.58;;;;;;;;;;10500178;28;20406;-80
2022/08/03 06:05:27;;;;;;;4.80;3.50;;;;;;;;;;10498095;28;20111;-80
2022/08/03 06:10:28;;;;;;;8.23;3.97;;;;;;;;;;10494839;28;20017;-78
2022/08/03 06:15:32;;;;;;;5.45;3.63;;;;;;;;;;10497213;28;20407;-78
2022/08/03 06:20:33;;;;;;;7.75;3.25;;;;;;;;;;10498986;28;20107;-79
2022/08/03 06:25:34;;;;;;;7.10;3.72;;;;;;;;;;10497072;28;20162;-80
2022/08/03 06:30:35;;;;;;;4.68;3.33;;;;;;;;;;10498706;28;20029;-81
2022/08/03 06:35:36;;;;;;;7.40;4.32;;;;;;;;;;10495720;28;20414;-80
2022/08/03 06:40:40;;;;;;;6.00;3.10;;;;;;;;;;10497573;28;20119;-80
2022/08/03 06:45:41;;;;;;;6.65;4.57;;;;;;;;;;10496790;28;20021;-80
2022/08/03 06:50:43;;;;;;;7.13;4.32;;;;;;;;;;10498358;28;20457;-80
2022/08/03 06:55:44;;;;;;;9.52;4.82;;;;;;;;;;10498894;28;20530;-79
2022/08/03 07:00:45;;;;;;;7.50;4.88;;;;;;;;;;10504550;28;20036;-81
2022/08/03 07:05:50;;;;;;;6.22;4.07;;;;;;;;;;10499100;28;20028;-80
2022/08/03 07:10:51;;;;;;;10.13;3.95;;;;;;;;;;10474304;28;20075;-82
2022/08/03 07:15:52;;;;;;;9.98;4.50;;;;;;;;;;10467140;28;20130;-82
2022/08/03 07:20:53;;;;;;;7.38;4.20;;;;;;;;;;10468792;28;20033;-82
2022/08/03 07:25:59;;;;;;;10.98;5.75;;;;;;;;;;10469800;28;20033;-81
2022/08/03 07:31:01;;;;;;;6.90;3.90;;;;;;;;;;10468774;28;20540;-82
2022/08/03 07:36:02;;;;;;;5.68;3.58;;;;;;;;;;10471748;28;20025;-82
2022/08/03 07:41:03;;;;;;;8.10;4.00;;;;;;;;;;10467606;28;20029;-81
2022/08/03 07:46:04;;;;;;;8.07;4.70;;;;;;;;;;10452248;28;20479;-81
2022/08/03 07:51:05;;;;;;;7.93;3.72;;;;;;;;;;10467556;28;20495;-82
2022/08/03 07:56:09;;;;;;;5.35;3.60;;;;;;;;;;10471297;28;20029;-80
2022/08/03 08:01:11;;;;;;;5.95;4.43;;;;;;;;;;10475342;28;20045;-80
2022/08/03 08:06:12;;;;;;;5.50;3.63;;;;;;;;;;10475825;28;20060;-79
2022/08/03 08:11:13;;;;;;;5.47;4.32;;;;;;;;;;10475593;28;20047;-82
2022/08/03 08:16:15;;;;;;;6.97;3.80;;;;;;;;;;10467786;28;20064;-80
2022/08/03 08:21:17;;;;;;;5.05;3.22;;;;;;;;;;10451295;28;20025;-81
2022/08/03 08:26:18;;;;;;;5.80;3.45;;;;;;;;;;10467057;28;20097;-81
2022/08/03 08:31:21;;;;;;;5.20;2.80;;;;;;;;;;10474318;28;20040;-81
2022/08/03 08:36:22;;;;;;;4.60;2.95;;;;;;;;;;10474720;28;20036;-81
2022/08/03 08:41:24;;;;;;;5.53;3.33;;;;;;;;;;10478646;28;20087;-83
2022/08/03 08:46:25;;;;;;;6.25;2.92;;;;;;;;;;10471754;28;20025;-82
2022/08/03 08:51:30;;;;;;;5.15;3.38;;;;;;;;;;10480994;28;20029;-81
2022/08/03 08:56:37;;;;;;;17.35;3.30;;;;;;;;;;10480046;28;20063;-82
2022/08/03 09:01:38;;;;;;;4.30;3.05;;;;;;;;;;10474099;28;20056;-82
2022/08/03 09:06:39;;;;;;;6.15;2.90;;;;;;;;;;10479901;28;20380;-82
2022/08/03 09:11:44;;;;;;;6.57;3.00;;;;;;;;;;10467423;28;20471;-82
2022/08/03 09:16:59;;;;;;;4.53;3.20;;;;;;;;;;10464043;28;20119;-81
2022/08/03 09:22:16;;;;;;;5.35;2.30;;;;;;;;;;10461961;28;20025;-82
2022/08/03 09:27:18;;;;;;;3.75;1.85;;;;;;;;;;10462644;28;20037;-82
2022/08/03 09:32:23;;;;;;;5.13;2.75;;;;;;;;;;10463753;28;20158;-82
2022/08/03 09:37:25;;;;;;;8.15;3.03;;;;;;;;;;10463862;28;20051;-82
2022/08/03 09:42:26;;;;;;;3.17;2.40;;;;;;;;;;10464251;28;20051;-80
2022/08/03 09:47:31;;;;;;;5.10;2.58;;;;;;;;;;10464401;28;20017;-82
2022/08/03 09:52:33;;;;;;;10.40;7.20;;;;;;;;;;10461897;28;20108;-82
2022/08/03 09:57:35;;;;;;;4.68;2.72;;;;;;;;;;10473817;28;20094;-81
2022/08/03 10:02:38;;;;;;;6.65;2.92;;;;;;;;;;10470920;28;20017;-84
2022/08/03 10:08:11;;;;;;;5.60;3.13;;;;;;;;;;10467358;28;20029;-82
2022/08/03 10:13:22;;;;;;;7.28;2.72;;;;;;;;;;10463576;28;20093;-82
2022/08/03 10:18:23;;;;;;;4.18;2.30;;;;;;;;;;10465869;28;20029;-81
2022/08/03 10:23:25;;;;;;;7.30;2.40;;;;;;;;;;10466326;28;20044;-82
2022/08/03 10:28:33;;;;;;;6.07;3.15;;;;;;;;;;10462594;28;20541;-82
2022/08/03 10:33:40;;;;;;;7.57;4.05;;;;;;;;;;10464414;28;20132;-83
2022/08/03 10:38:51;;;;;;;3.92;2.00;;;;;;;;;;10465364;28;20478;-83
2022/08/03 10:43:58;;;;;;;6.88;2.47;;;;;;;;;;10466725;28;20029;-81
2022/08/03 10:48:59;;;;;;;7.43;3.13;;;;;;;;;;10476343;28;20033;-84
2022/08/03 10:54:00;;;;;;;8.75;2.30;;;;;;;;;;10480041;28;20096;-84
2022/08/03 10:59:01;;;;;;;8.18;3.45;;;;;;;;;;10477627;28;20478;-84
2022/08/03 11:04:24;;;;;;;9.07;4.72;;;;;;;;;;10478444;28;20060;-84
2022/08/03 11:09:25;;;;;;;6.25;2.72;;;;;;;;;;10476835;28;20447;-84
2022/08/03 11:14:28;;;;;;;9.20;2.88;;;;;;;;;;10475009;28;20059;-83
2022/08/03 11:19:42;;;;;;;7.00;2.63;;;;;;;;;;10473147;28;20045;-83
2022/08/03 11:24:50;;;;;;;6.20;2.92;;;;;;;;;;10476550;28;20025;-85
2022/08/03 11:29:55;;;;;;;6.43;2.42;;;;;;;;;;10477995;28;20494;-84
2022/08/03 11:35:13;;;;;;;6.68;2.35;;;;;;;;;;10477935;28;20059;-83
2022/08/03 11:40:32;;;;;;;6.03;1.80;;;;;;;;;;10475084;28;20554;-85
2022/08/03 11:45:34;;;;;;;6.22;2.20;;;;;;;;;;10474597;28;20024;-84
2022/08/03 11:50:38;;;;;;;5.78;2.33;;;;;;;;;;10473513;28;20029;-85
2022/08/03 11:55:41;;;;;;;5.75;2.20;;;;;;;;;;10472875;28;20045;-85
2022/08/03 12:00:42;;;;;;;5.25;1.98;;;;;;;;;;10472316;28;20021;-83
2022/08/03 12:05:43;;;;;;;7.30;2.17;;;;;;;;;;10472035;28;20025;-85
2022/08/03 12:10:49;;;;;;;9.18;6.78;;;;;;;;;;10476881;28;20017;-84
2022/08/03 12:15:51;;;;;;;3.20;2.00;;;;;;;;;;10478057;28;20047;-83
2022/08/03 12:21:03;;;;;;;5.82;1.90;;;;;;;;;;10482635;28;20044;-84
2022/08/03 12:26:05;;;;;;;4.28;1.58;;;;;;;;;;10477254;28;20027;-85
2022/08/03 12:31:08;;;;;;;6.10;1.83;;;;;;;;;;10478007;28;20039;-84
2022/08/03 12:36:09;;;;;;;5.40;1.88;;;;;;;;;;10473412;28;20060;-84
2022/08/03 12:41:13;;;;;;;3.88;1.55;;;;;;;;;;10483913;28;20053;-84
2022/08/03 12:46:15;;;;;;;3.45;1.70;;;;;;;;;;10478171;28;20123;-85
2022/08/03 12:51:16;;;;;;;6.95;2.08;;;;;;;;;;10479007;28;20553;-85
2022/08/03 12:56:19;;;;;;;4.30;1.73;;;;;;;;;;10473908;28;20071;-84
2022/08/03 13:01:23;;;;;;;3.85;1.50;;;;;;;;;;10477907;28;20367;-84
2022/08/03 13:06:25;;;;;;;5.90;2.35;;;;;;;;;;10476779;28;20394;-85
2022/08/03 13:11:26;;;;;;;5.75;2.20;;;;;;;;;;10476754;28;20025;-85
2022/08/03 13:16:27;;;;;;;9.10;8.15;;;;;;;;;;10472858;28;20498;-86
2022/08/03 13:21:28;;;;;;;6.43;3.60;;;;;;;;;;10478017;28;20021;-86
2022/08/03 13:26:30;;;;;;;3.33;1.70;;;;;;;;;;10478407;28;20020;-84
2022/08/03 13:31:31;;;;;;;3.97;2.05;;;;;;;;;;10474372;28;20093;-86
2022/08/03 13:36:32;;;;;;;5.05;1.88;;;;;;;;;;10471962;28;20129;-85
2022/08/03 13:41:33;;;;;;;5.63;1.90;;;;;;;;;;10475590;28;20025;-86
2022/08/03 13:46:34;;;;;;;3.35;1.60;;;;;;;;;;10475730;28;20032;-85
2022/08/03 13:51:35;;;;;;;8.50;5.22;;;;;;;;;;10479716;28;20121;-86
2022/08/03 13:56:36;;;;;;;5.05;2.65;;;;;;;;;;10474230;28;20049;-85
2022/08/03 14:01:37;;;;;;;3.85;1.90;;;;;;;;;;10476599;28;20022;-84
2022/08/03 14:06:38;;;;;;;5.97;2.10;;;;;;;;;;10478940;28;20036;-84
2022/08/03 14:11:39;;;;;;;4.57;2.03;;;;;;;;;;10499982;28;20045;-83
2022/08/03 14:16:42;;;;;;;3.78;2.22;;;;;;;;;;10505350;28;20028;-84
2022/08/03 14:21:43;;;;;;;4.07;1.90;;;;;;;;;;10512093;28;20036;-85
2022/08/03 14:26:44;;;;;;;5.10;2.42;;;;;;;;;;10504789;28;20020;-85
2022/08/03 14:31:45;;;;;;;6.65;1.85;;;;;;;;;;10513836;28;20045;-83
2022/08/03 14:36:46;;;;;;;4.38;1.88;;;;;;;;;;10494745;28;20025;-84
2022/08/03 14:41:47;;;;;;;6.95;2.40;;;;;;;;;;10478139;28;20035;-84
2022/08/03 14:46:48;;;;;;;7.05;1.90;;;;;;;;;;10478766;28;20025;-82
2022/08/03 14:51:49;;;;;;;3.53;2.35;;;;;;;;;;10478551;28;20035;-85
2022/08/03 14:56:50;;;;;;;5.53;1.77;;;;;;;;;;10478764;28;20037;-82
2022/08/03 15:01:51;;;;;;;2.83;1.92;;;;;;;;;;10477379;28;20049;-84
2022/08/03 15:06:52;;;;;;;3.15;1.73;;;;;;;;;;10482785;28;20411;-84
2022/08/03 15:11:53;;;;;;;3.47;1.90;;;;;;;;;;10475861;28;20076;-83
2022/08/03 15:16:54;;;;;;;5.07;1.70;;;;;;;;;;10476638;28;20090;-83
2022/08/03 15:21:55;;;;;;;5.53;2.40;;;;;;;;;;10482226;28;20028;-85
2022/08/03 15:26:56;;;;;;;6.78;2.20;;;;;;;;;;10478562;28;20367;-83
2022/08/03 15:31:57;;;;;;;4.40;1.70;;;;;;;;;;10478805;28;20060;-84
2022/08/03 15:36:59;;;;;;;5.82;1.80;;;;;;;;;;10479522;28;20028;-84
2022/08/03 15:42:00;;;;;;;5.97;4.85;;;;;;;;;;10473991;28;20017;-85
2022/08/03 15:47:01;;;;;;;7.72;6.20;;;;;;;;;;10474531;28;20471;-85
2022/08/03 15:52:02;;;;;;;3.78;2.00;;;;;;;;;;10474661;28;20127;-84
2022/08/03 15:57:03;;;;;;;2.45;1.50;;;;;;;;;;10474832;28;20064;-84
2022/08/03 16:02:04;;;;;;;5.05;1.58;;;;;;;;;;10474176;28;20439;-84
2022/08/03 16:07:05;;;;;;;2.83;1.17;;;;;;;;;;10475749;28;20028;-84
2022/08/03 16:17:52;;;;;;;3.08;1.25;;;;;;;;;;10483262;28;20096;-81
2022/08/03 16:22:53;;;;;;;3.78;1.55;;;;;;;;;;10501491;28;20095;-81
2022/08/03 16:27:54;;;;;;;6.13;2.60;;;;;;;;;;10498690;28;20049;-81
2022/08/03 16:32:55;;;;;;;3.08;1.38;;;;;;;;;;10499527;28;20036;-81
2022/08/03 16:37:57;;;;;;;5.97;1.40;;;;;;;;;;10508616;28;20020;-81
2022/08/03 16:42:58;;;;;;;4.30;1.38;;;;;;;;;;10508869;28;20033;-82
2022/08/03 16:47:59;;;;;;;4.78;1.50;;;;;;;;;;10509523;28;20013;-82
2022/08/03 16:53:02;;;;;;;4.40;2.67;;;;;;;;;;10507707;28;20036;-83
2022/08/03 16:58:03;;;;;;;3.75;1.60;;;;;;;;;;10507211;28;20043;-83
2022/08/03 17:03:07;;;;;;;4.47;1.55;;;;;;;;;;10501720;28;20025;-83
2022/08/03 17:08:08;;;;;;;3.67;1.17;;;;;;;;;;10493570;28;20024;-83
2022/08/03 17:13:09;;;;;;;2.28;1.10;;;;;;;;;;10492165;28;20033;-84
2022/08/03 17:18:12;;;;;;;3.88;0.95;;;;;;;;;;10490682;28;20510;-83
2022/08/03 17:23:20;;;;;;;5.85;1.17;;;;;;;;;;10474057;28;20017;-82
2022/08/03 17:28:23;;;;;;;3.80;1.02;;;;;;;;;;10472314;28;20021;-83
2022/08/03 17:33:25;;;;;;;3.58;1.05;;;;;;;;;;10467658;28;20473;-83
2022/08/03 17:38:26;;;;;;;3.88;1.15;;;;;;;;;;10467758;28;20025;-83
2022/08/03 17:43:28;;;;;;;2.35;1.10;;;;;;;;;;10468618;28;20387;-82
2022/08/03 17:48:30;;;;;;;6.85;1.10;;;;;;;;;;10467274;28;20033;-82
2022/08/03 17:53:36;;;;;;;4.28;1.17;;;;;;;;;;10468089;28;20021;-83
2022/08/03 17:59:00;;;;;;;4.40;1.45;;;;;;;;;;10467278;28;20124;-82
2022/08/03 18:04:04;;;;;;;3.83;1.10;;;;;;;;;;10467737;28;20037;-83
2022/08/03 18:09:08;;;;;;;3.10;0.90;;;;;;;;;;10469049;28;20029;-81
2022/08/03 18:14:22;;;;;;;4.68;1.00;;;;;;;;;;10468466;28;20406;-82
2022/08/03 18:19:23;;;;;;;4.57;1.38;;;;;;;;;;10467780;28;20211;-82
2022/08/03 18:24:29;;;;;;;3.33;1.30;;;;;;;;;;10466903;28;20088;-82
2022/08/03 18:29:32;;;;;;;3.47;1.33;;;;;;;;;;10468334;28;20024;-81
2022/08/03 18:34:33;;;;;;;3.70;1.50;;;;;;;;;;10467521;28;20140;-82
2022/08/03 18:39:36;;;;;;;4.65;1.58;;;;;;;;;;10466702;28;20025;-81
2022/08/03 18:44:39;;;;;;;5.13;1.70;;;;;;;;;;10466289;28;20115;-81
2022/08/03 18:49:46;;;;;;;8.00;2.45;;;;;;;;;;10465785;28;20049;-81
2022/08/03 18:55:02;;;;;;;4.97;1.90;;;;;;;;;;10465791;28;20033;-81
2022/08/03 19:00:07;;;;;;;3.22;1.73;;;;;;;;;;10467490;28;20028;-81
2022/08/03 19:05:09;;;;;;;5.93;1.90;;;;;;;;;;10468470;28;20033;-82
2022/08/03 19:10:10;;;;;;;3.10;1.40;;;;;;;;;;10474640;28;20029;-81
2022/08/03 19:15:12;;;;;;;5.90;2.17;;;;;;;;;;10474498;28;20484;-81
2022/08/03 19:20:13;;;;;;;8.30;3.13;;;;;;;;;;10473676;28;20056;-82
